sensor_id;sensor_type;location;lat;lon;timestamp;P1;durP1;ratioP1;P2;durP2;ratioP2
32355;SDS011;62578;53.556;9.914;2022-07-30T00:02:16;1.73;;;1.13;;
32355;SDS011;62578;53.556;9.914;2022-07-30T00:04:43;3.50;;;1.53;;
32355;SDS011;62578;53.556;9.914;2022-07-30T00:07:09;7.90;;;1.10;;
32355;SDS011;62578;53.556;9.914;2022-07-30T00:09:35;1.87;;;1.40;;
32355;SDS011;62578;53.556;9.914;2022-07-30T00:12:00;7.97;;;1.63;;
32355;SDS011;62578;53.556;9.914;2022-07-30T00:14:26;6.00;;;1.90;;
32355;SDS011;62578;53.556;9.914;2022-07-30T00:16:52;1.30;;;1.20;;
32355;SDS011;62578;53.556;9.914;2022-07-30T00:19:18;1.60;;;1.50;;
32355;SDS011;62578;53.556;9.914;2022-07-30T00:21:44;1.93;;;1.40;;
32355;SDS011;62578;53.556;9.914;2022-07-30T00:24:10;2.70;;;1.33;;
32355;SDS011;62578;53.556;9.914;2022-07-30T00:26:36;3.03;;;1.10;;
32355;SDS011;62578;53.556;9.914;2022-07-30T00:29:02;2.10;;;1.60;;
32355;SDS011;62578;53.556;9.914;2022-07-30T00:31:28;2.00;;;1.10;;
32355;SDS011;62578;53.556;9.914;2022-07-30T00:33:54;3.37;;;1.43;;
32355;SDS011;62578;53.556;9.914;2022-07-30T00:36:20;2.43;;;1.30;;
32355;SDS011;62578;53.556;9.914;2022-07-30T00:38:46;2.80;;;1.43;;
32355;SDS011;62578;53.556;9.914;2022-07-30T00:41:12;4.17;;;1.20;;
32355;SDS011;62578;53.556;9.914;2022-07-30T00:43:37;6.40;;;1.90;;
32355;SDS011;62578;53.556;9.914;2022-07-30T00:46:03;2.60;;;1.40;;
32355;SDS011;62578;53.556;9.914;2022-07-30T00:48:29;3.50;;;1.10;;
32355;SDS011;62578;53.556;9.914;2022-07-30T00:50:54;1.03;;;1.03;;
32355;SDS011;62578;53.556;9.914;2022-07-30T00:53:20;2.27;;;1.43;;
32355;SDS011;62578;53.556;9.914;2022-07-30T00:55:46;2.60;;;1.07;;
32355;SDS011;62578;53.556;9.914;2022-07-30T00:58:11;4.00;;;1.57;;
32355;SDS011;62578;53.556;9.914;2022-07-30T01:00:37;1.40;;;1.10;;
32355;SDS011;62578;53.556;9.914;2022-07-30T01:03:03;2.30;;;1.40;;
32355;SDS011;62578;53.556;9.914;2022-07-30T01:05:29;1.13;;;1.03;;
32355;SDS011;62578;53.556;9.914;2022-07-30T01:07:55;1.27;;;1.00;;
32355;SDS011;62578;53.556;9.914;2022-07-30T01:10:20;6.00;;;1.73;;
32355;SDS011;62578;53.556;9.914;2022-07-30T01:12:46;2.30;;;1.30;;
32355;SDS011;62578;53.556;9.914;2022-07-30T01:15:11;3.37;;;1.03;;
32355;SDS011;62578;53.556;9.914;2022-07-30T01:17:37;3.00;;;1.33;;
32355;SDS011;62578;53.556;9.914;2022-07-30T01:20:23;3.63;;;1.23;;
32355;SDS011;62578;53.556;9.914;2022-07-30T01:30:33;1.33;;;0.83;;
32355;SDS011;62578;53.556;9.914;2022-07-30T01:33:02;3.83;;;1.40;;
32355;SDS011;62578;53.556;9.914;2022-07-30T01:35:30;2.50;;;0.80;;
32355;SDS011;62578;53.556;9.914;2022-07-30T01:37:57;3.33;;;1.10;;
32355;SDS011;62578;53.556;9.914;2022-07-30T01:40:25;1.67;;;1.20;;
32355;SDS011;62578;53.556;9.914;2022-07-30T01:42:53;1.87;;;1.10;;
32355;SDS011;62578;53.556;9.914;2022-07-30T01:45:22;2.50;;;1.00;;
32355;SDS011;62578;53.556;9.914;2022-07-30T01:47:52;1.13;;;1.00;;
32355;SDS011;62578;53.556;9.914;2022-07-30T01:50:20;7.13;;;1.40;;
32355;SDS011;62578;53.556;9.914;2022-07-30T01:52:47;1.77;;;1.37;;
32355;SDS011;62578;53.556;9.914;2022-07-30T01:55:17;6.17;;;1.00;;
32355;SDS011;62578;53.556;9.914;2022-07-30T01:57:50;2.40;;;1.53;;
32355;SDS011;62578;53.556;9.914;2022-07-30T02:00:17;1.37;;;1.27;;
32355;SDS011;62578;53.556;9.914;2022-07-30T02:02:43;1.10;;;1.00;;
32355;SDS011;62578;53.556;9.914;2022-07-30T02:05:09;3.03;;;1.33;;
32355;SDS011;62578;53.556;9.914;2022-07-30T02:10:19;0.87;;;0.83;;
32355;SDS011;62578;53.556;9.914;2022-07-30T02:12:53;1.77;;;1.27;;
32355;SDS011;62578;53.556;9.914;2022-07-30T02:15:30;2.63;;;0.90;;
32355;SDS011;62578;53.556;9.914;2022-07-30T02:18:05;5.00;;;1.17;;
32355;SDS011;62578;53.556;9.914;2022-07-30T02:20:37;1.97;;;1.07;;
32355;SDS011;62578;53.556;9.914;2022-07-30T02:23:09;1.63;;;1.30;;
32355;SDS011;62578;53.556;9.914;2022-07-30T02:25:37;2.60;;;1.07;;
32355;SDS011;62578;53.556;9.914;2022-07-30T02:28:13;5.60;;;1.73;;
32355;SDS011;62578;53.556;9.914;2022-07-30T02:30:49;1.67;;;1.07;;
32355;SDS011;62578;53.556;9.914;2022-07-30T02:33:18;1.17;;;1.00;;
32355;SDS011;62578;53.556;9.914;2022-07-30T02:35:48;3.90;;;1.47;;
32355;SDS011;62578;53.556;9.914;2022-07-30T02:38:16;2.13;;;1.00;;
32355;SDS011;62578;53.556;9.914;2022-07-30T02:40:42;6.83;;;1.17;;
32355;SDS011;62578;53.556;9.914;2022-07-30T02:43:10;2.77;;;1.10;;
32355;SDS011;62578;53.556;9.914;2022-07-30T02:45:39;3.57;;;1.33;;
32355;SDS011;62578;53.556;9.914;2022-07-30T02:48:08;1.67;;;1.00;;
32355;SDS011;62578;53.556;9.914;2022-07-30T02:50:35;1.97;;;1.13;;
32355;SDS011;62578;53.556;9.914;2022-07-30T02:53:04;1.13;;;1.03;;
32355;SDS011;62578;53.556;9.914;2022-07-30T02:55:33;7.63;;;1.30;;
32355;SDS011;62578;53.556;9.914;2022-07-30T02:58:03;4.20;;;1.50;;
32355;SDS011;62578;53.556;9.914;2022-07-30T03:00:30;1.97;;;1.10;;
32355;SDS011;62578;53.556;9.914;2022-07-30T03:02:56;8.30;;;0.90;;
32355;SDS011;62578;53.556;9.914;2022-07-30T03:05:23;6.10;;;1.30;;
32355;SDS011;62578;53.556;9.914;2022-07-30T03:07:50;3.83;;;1.03;;
32355;SDS011;62578;53.556;9.914;2022-07-30T03:10:21;1.27;;;1.10;;
32355;SDS011;62578;53.556;9.914;2022-07-30T03:12:48;4.30;;;1.53;;
32355;SDS011;62578;53.556;9.914;2022-07-30T03:15:15;1.50;;;0.90;;
32355;SDS011;62578;53.556;9.914;2022-07-30T03:17:45;3.60;;;0.90;;
32355;SDS011;62578;53.556;9.914;2022-07-30T03:20:16;1.87;;;1.00;;
32355;SDS011;62578;53.556;9.914;2022-07-30T03:22:45;3.67;;;1.50;;
32355;SDS011;62578;53.556;9.914;2022-07-30T03:25:15;1.83;;;1.33;;
32355;SDS011;62578;53.556;9.914;2022-07-30T03:27:46;3.07;;;1.07;;
32355;SDS011;62578;53.556;9.914;2022-07-30T03:30:14;1.07;;;1.07;;
32355;SDS011;62578;53.556;9.914;2022-07-30T03:32:40;2.43;;;1.50;;
32355;SDS011;62578;53.556;9.914;2022-07-30T03:35:07;3.43;;;1.10;;
32355;SDS011;62578;53.556;9.914;2022-07-30T03:37:34;2.13;;;1.10;;
32355;SDS011;62578;53.556;9.914;2022-07-30T03:40:02;1.40;;;1.10;;
32355;SDS011;62578;53.556;9.914;2022-07-30T03:42:28;0.70;;;0.70;;
32355;SDS011;62578;53.556;9.914;2022-07-30T03:44:56;5.40;;;1.27;;
32355;SDS011;62578;53.556;9.914;2022-07-30T03:47:22;1.93;;;1.00;;
32355;SDS011;62578;53.556;9.914;2022-07-30T03:49:49;1.77;;;1.67;;
32355;SDS011;62578;53.556;9.914;2022-07-30T03:52:16;3.23;;;1.03;;
32355;SDS011;62578;53.556;9.914;2022-07-30T03:54:42;3.70;;;0.93;;
32355;SDS011;62578;53.556;9.914;2022-07-30T03:57:09;1.97;;;1.13;;
32355;SDS011;62578;53.556;9.914;2022-07-30T03:59:35;3.90;;;1.40;;
32355;SDS011;62578;53.556;9.914;2022-07-30T04:02:01;4.13;;;1.43;;
32355;SDS011;62578;53.556;9.914;2022-07-30T04:04:28;2.50;;;1.03;;
32355;SDS011;62578;53.556;9.914;2022-07-30T04:06:54;10.00;;;1.60;;
32355;SDS011;62578;53.556;9.914;2022-07-30T04:09:21;2.17;;;1.10;;
32355;SDS011;62578;53.556;9.914;2022-07-30T04:11:47;4.40;;;1.00;;
32355;SDS011;62578;53.556;9.914;2022-07-30T04:14:13;3.17;;;1.17;;
32355;SDS011;62578;53.556;9.914;2022-07-30T04:16:55;4.77;;;0.90;;
32355;SDS011;62578;53.556;9.914;2022-07-30T04:19:29;1.90;;;1.07;;
32355;SDS011;62578;53.556;9.914;2022-07-30T04:21:59;6.33;;;0.80;;
32355;SDS011;62578;53.556;9.914;2022-07-30T04:24:27;3.73;;;1.27;;
32355;SDS011;62578;53.556;9.914;2022-07-30T04:26:55;14.17;;;2.00;;
32355;SDS011;62578;53.556;9.914;2022-07-30T04:29:23;5.83;;;2.10;;
32355;SDS011;62578;53.556;9.914;2022-07-30T04:31:49;4.00;;;1.33;;
32355;SDS011;62578;53.556;9.914;2022-07-30T04:34:15;5.30;;;1.10;;
32355;SDS011;62578;53.556;9.914;2022-07-30T04:36:41;2.70;;;1.27;;
32355;SDS011;62578;53.556;9.914;2022-07-30T04:39:08;10.37;;;1.90;;
32355;SDS011;62578;53.556;9.914;2022-07-30T04:41:34;4.40;;;2.23;;
32355;SDS011;62578;53.556;9.914;2022-07-30T04:44:00;7.00;;;2.30;;
32355;SDS011;62578;53.556;9.914;2022-07-30T04:46:25;5.17;;;2.30;;
32355;SDS011;62578;53.556;9.914;2022-07-30T04:48:51;10.13;;;2.70;;
32355;SDS011;62578;53.556;9.914;2022-07-30T04:51:33;6.40;;;2.50;;
32355;SDS011;62578;53.556;9.914;2022-07-30T04:54:01;5.97;;;2.00;;
32355;SDS011;62578;53.556;9.914;2022-07-30T04:56:29;5.07;;;2.13;;
32355;SDS011;62578;53.556;9.914;2022-07-30T04:58:57;7.57;;;2.47;;
32355;SDS011;62578;53.556;9.914;2022-07-30T05:01:33;10.13;;;2.80;;
32355;SDS011;62578;53.556;9.914;2022-07-30T05:04:02;2.93;;;2.00;;
32355;SDS011;62578;53.556;9.914;2022-07-30T05:06:28;6.37;;;2.20;;
32355;SDS011;62578;53.556;9.914;2022-07-30T05:08:55;5.43;;;2.40;;
32355;SDS011;62578;53.556;9.914;2022-07-30T05:11:21;6.03;;;2.43;;
32355;SDS011;62578;53.556;9.914;2022-07-30T05:13:47;2.47;;;2.20;;
32355;SDS011;62578;53.556;9.914;2022-07-30T05:16:13;7.43;;;2.20;;
32355;SDS011;62578;53.556;9.914;2022-07-30T05:18:39;8.17;;;2.30;;
32355;SDS011;62578;53.556;9.914;2022-07-30T05:21:05;5.17;;;2.30;;
32355;SDS011;62578;53.556;9.914;2022-07-30T05:23:31;7.60;;;2.73;;
32355;SDS011;62578;53.556;9.914;2022-07-30T05:25:58;5.27;;;2.27;;
32355;SDS011;62578;53.556;9.914;2022-07-30T05:28:24;6.40;;;2.40;;
32355;SDS011;62578;53.556;9.914;2022-07-30T05:30:51;7.07;;;2.10;;
32355;SDS011;62578;53.556;9.914;2022-07-30T05:33:17;4.80;;;2.27;;
32355;SDS011;62578;53.556;9.914;2022-07-30T05:35:43;6.77;;;2.27;;
32355;SDS011;62578;53.556;9.914;2022-07-30T05:38:09;6.20;;;2.00;;
32355;SDS011;62578;53.556;9.914;2022-07-30T05:40:35;6.47;;;2.10;;
32355;SDS011;62578;53.556;9.914;2022-07-30T05:43:00;4.80;;;2.30;;
32355;SDS011;62578;53.556;9.914;2022-07-30T05:45:26;6.70;;;2.73;;
32355;SDS011;62578;53.556;9.914;2022-07-30T05:47:52;5.23;;;2.00;;
32355;SDS011;62578;53.556;9.914;2022-07-30T05:50:18;19.03;;;2.43;;
32355;SDS011;62578;53.556;9.914;2022-07-30T05:52:43;3.60;;;2.30;;
32355;SDS011;62578;53.556;9.914;2022-07-30T05:55:09;5.77;;;2.07;;
32355;SDS011;62578;53.556;9.914;2022-07-30T05:57:35;9.50;;;2.40;;
32355;SDS011;62578;53.556;9.914;2022-07-30T06:00:02;10.43;;;2.30;;
32355;SDS011;62578;53.556;9.914;2022-07-30T06:02:30;9.57;;;2.30;;
32355;SDS011;62578;53.556;9.914;2022-07-30T06:04:55;10.67;;;1.83;;
32355;SDS011;62578;53.556;9.914;2022-07-30T06:07:21;6.97;;;2.00;;
32355;SDS011;62578;53.556;9.914;2022-07-30T06:09:47;7.10;;;2.80;;
32355;SDS011;62578;53.556;9.914;2022-07-30T06:12:12;8.63;;;2.80;;
32355;SDS011;62578;53.556;9.914;2022-07-30T06:14:38;2.53;;;2.00;;
32355;SDS011;62578;53.556;9.914;2022-07-30T06:17:04;6.27;;;2.93;;
32355;SDS011;62578;53.556;9.914;2022-07-30T06:19:29;5.70;;;2.53;;
32355;SDS011;62578;53.556;9.914;2022-07-30T06:21:55;4.60;;;2.40;;
32355;SDS011;62578;53.556;9.914;2022-07-30T06:24:21;3.40;;;1.87;;
32355;SDS011;62578;53.556;9.914;2022-07-30T06:26:46;5.60;;;2.07;;
32355;SDS011;62578;53.556;9.914;2022-07-30T06:29:12;3.10;;;1.90;;
32355;SDS011;62578;53.556;9.914;2022-07-30T06:31:38;6.43;;;1.93;;
32355;SDS011;62578;53.556;9.914;2022-07-30T06:34:05;3.80;;;2.20;;
32355;SDS011;62578;53.556;9.914;2022-07-30T06:36:31;6.20;;;2.67;;
32355;SDS011;62578;53.556;9.914;2022-07-30T06:38:56;4.23;;;3.80;;
32355;SDS011;62578;53.556;9.914;2022-07-30T06:41:22;9.63;;;3.23;;
32355;SDS011;62578;53.556;9.914;2022-07-30T06:43:48;11.50;;;3.03;;
32355;SDS011;62578;53.556;9.914;2022-07-30T06:46:15;5.80;;;2.73;;
32355;SDS011;62578;53.556;9.914;2022-07-30T06:48:41;4.53;;;2.50;;
32355;SDS011;62578;53.556;9.914;2022-07-30T06:51:07;4.60;;;2.37;;
32355;SDS011;62578;53.556;9.914;2022-07-30T06:53:33;6.20;;;3.03;;
32355;SDS011;62578;53.556;9.914;2022-07-30T06:55:59;5.93;;;2.67;;
32355;SDS011;62578;53.556;9.914;2022-07-30T06:58:24;4.27;;;2.10;;
32355;SDS011;62578;53.556;9.914;2022-07-30T07:00:50;7.03;;;2.27;;
32355;SDS011;62578;53.556;9.914;2022-07-30T07:03:16;6.43;;;2.30;;
32355;SDS011;62578;53.556;9.914;2022-07-30T07:05:41;10.57;;;2.80;;
32355;SDS011;62578;53.556;9.914;2022-07-30T07:08:07;4.87;;;2.30;;
32355;SDS011;62578;53.556;9.914;2022-07-30T07:10:33;5.00;;;3.23;;
32355;SDS011;62578;53.556;9.914;2022-07-30T07:12:58;7.83;;;3.13;;
32355;SDS011;62578;53.556;9.914;2022-07-30T07:15:24;11.90;;;2.97;;
32355;SDS011;62578;53.556;9.914;2022-07-30T07:17:50;29.37;;;4.60;;
32355;SDS011;62578;53.556;9.914;2022-07-30T07:20:16;26.03;;;4.13;;
32355;SDS011;62578;53.556;9.914;2022-07-30T07:22:42;14.70;;;3.40;;
32355;SDS011;62578;53.556;9.914;2022-07-30T07:25:08;20.57;;;4.13;;
32355;SDS011;62578;53.556;9.914;2022-07-30T07:27:35;21.67;;;3.37;;
32355;SDS011;62578;53.556;9.914;2022-07-30T07:30:01;30.27;;;3.23;;
32355;SDS011;62578;53.556;9.914;2022-07-30T07:32:28;12.83;;;3.50;;
32355;SDS011;62578;53.556;9.914;2022-07-30T07:34:54;22.17;;;3.63;;
32355;SDS011;62578;53.556;9.914;2022-07-30T07:37:20;13.43;;;3.40;;
32355;SDS011;62578;53.556;9.914;2022-07-30T07:39:45;24.60;;;5.00;;
32355;SDS011;62578;53.556;9.914;2022-07-30T07:42:11;27.00;;;3.67;;
32355;SDS011;62578;53.556;9.914;2022-07-30T07:44:36;18.73;;;3.70;;
32355;SDS011;62578;53.556;9.914;2022-07-30T07:47:02;24.93;;;4.33;;
32355;SDS011;62578;53.556;9.914;2022-07-30T07:49:28;15.03;;;3.60;;
32355;SDS011;62578;53.556;9.914;2022-07-30T07:51:54;22.90;;;3.10;;
32355;SDS011;62578;53.556;9.914;2022-07-30T07:54:19;25.50;;;3.77;;
32355;SDS011;62578;53.556;9.914;2022-07-30T07:56:45;32.53;;;4.47;;
32355;SDS011;62578;53.556;9.914;2022-07-30T07:59:12;35.50;;;4.10;;
32355;SDS011;62578;53.556;9.914;2022-07-30T08:01:38;22.37;;;3.83;;
32355;SDS011;62578;53.556;9.914;2022-07-30T08:04:03;24.73;;;3.73;;
32355;SDS011;62578;53.556;9.914;2022-07-30T08:06:29;24.27;;;3.53;;
32355;SDS011;62578;53.556;9.914;2022-07-30T08:08:55;21.57;;;3.70;;
32355;SDS011;62578;53.556;9.914;2022-07-30T08:11:20;29.23;;;5.20;;
32355;SDS011;62578;53.556;9.914;2022-07-30T08:13:46;39.87;;;4.90;;
32355;SDS011;62578;53.556;9.914;2022-07-30T08:16:12;24.63;;;4.50;;
32355;SDS011;62578;53.556;9.914;2022-07-30T08:18:38;22.07;;;4.20;;
32355;SDS011;62578;53.556;9.914;2022-07-30T08:21:04;36.20;;;4.60;;
32355;SDS011;62578;53.556;9.914;2022-07-30T08:23:30;25.97;;;4.07;;
32355;SDS011;62578;53.556;9.914;2022-07-30T08:25:56;26.30;;;4.50;;
32355;SDS011;62578;53.556;9.914;2022-07-30T08:28:22;26.67;;;4.77;;
32355;SDS011;62578;53.556;9.914;2022-07-30T08:30:48;33.27;;;5.03;;
32355;SDS011;62578;53.556;9.914;2022-07-30T08:33:14;41.77;;;5.00;;
32355;SDS011;62578;53.556;9.914;2022-07-30T08:35:40;34.57;;;5.03;;
32355;SDS011;62578;53.556;9.914;2022-07-30T08:38:06;35.40;;;4.40;;
32355;SDS011;62578;53.556;9.914;2022-07-30T08:40:32;31.43;;;3.90;;
32355;SDS011;62578;53.556;9.914;2022-07-30T08:43:01;23.63;;;4.13;;
32355;SDS011;62578;53.556;9.914;2022-07-30T08:45:29;29.30;;;3.97;;
32355;SDS011;62578;53.556;9.914;2022-07-30T08:47:56;29.83;;;4.00;;
32355;SDS011;62578;53.556;9.914;2022-07-30T08:50:24;38.53;;;5.63;;
32355;SDS011;62578;53.556;9.914;2022-07-30T08:52:50;44.83;;;4.43;;
32355;SDS011;62578;53.556;9.914;2022-07-30T08:55:20;44.87;;;4.80;;
32355;SDS011;62578;53.556;9.914;2022-07-30T08:57:47;33.37;;;5.37;;
32355;SDS011;62578;53.556;9.914;2022-07-30T09:00:13;55.60;;;8.03;;
32355;SDS011;62578;53.556;9.914;2022-07-30T09:02:40;44.97;;;6.87;;
32355;SDS011;62578;53.556;9.914;2022-07-30T09:05:06;54.00;;;6.30;;
32355;SDS011;62578;53.556;9.914;2022-07-30T09:07:34;51.83;;;6.53;;
32355;SDS011;62578;53.556;9.914;2022-07-30T09:10:00;44.33;;;4.80;;
32355;SDS011;62578;53.556;9.914;2022-07-30T09:12:32;41.17;;;4.93;;
32355;SDS011;62578;53.556;9.914;2022-07-30T09:17:56;26.77;;;5.50;;
32355;SDS011;62578;53.556;9.914;2022-07-30T09:20:28;53.47;;;4.63;;
32355;SDS011;62578;53.556;9.914;2022-07-30T09:22:57;38.30;;;4.30;;
32355;SDS011;62578;53.556;9.914;2022-07-30T09:28:05;64.20;;;6.07;;
32355;SDS011;62578;53.556;9.914;2022-07-30T09:30:49;24.10;;;4.00;;
32355;SDS011;62578;53.556;9.914;2022-07-30T09:36:21;54.07;;;6.57;;
32355;SDS011;62578;53.556;9.914;2022-07-30T09:38:48;43.60;;;5.20;;
32355;SDS011;62578;53.556;9.914;2022-07-30T09:41:18;44.53;;;4.80;;
32355;SDS011;62578;53.556;9.914;2022-07-30T09:43:56;41.60;;;4.60;;
32355;SDS011;62578;53.556;9.914;2022-07-30T09:46:23;34.10;;;5.27;;
32355;SDS011;62578;53.556;9.914;2022-07-30T09:49:18;34.73;;;4.50;;
32355;SDS011;62578;53.556;9.914;2022-07-30T09:51:45;39.50;;;4.33;;
32355;SDS011;62578;53.556;9.914;2022-07-30T09:54:12;49.53;;;5.97;;
32355;SDS011;62578;53.556;9.914;2022-07-30T09:56:37;49.57;;;6.57;;
32355;SDS011;62578;53.556;9.914;2022-07-30T09:59:04;52.47;;;6.43;;
32355;SDS011;62578;53.556;9.914;2022-07-30T10:01:50;46.97;;;6.10;;
32355;SDS011;62578;53.556;9.914;2022-07-30T10:04:29;71.60;;;8.40;;
32355;SDS011;62578;53.556;9.914;2022-07-30T10:06:57;56.40;;;6.57;;
32355;SDS011;62578;53.556;9.914;2022-07-30T10:09:28;63.70;;;7.23;;
32355;SDS011;62578;53.556;9.914;2022-07-30T10:11:57;58.13;;;7.43;;
32355;SDS011;62578;53.556;9.914;2022-07-30T10:14:25;74.33;;;7.90;;
32355;SDS011;62578;53.556;9.914;2022-07-30T10:16:53;47.17;;;5.63;;
32355;SDS011;62578;53.556;9.914;2022-07-30T10:19:19;46.27;;;5.47;;
32355;SDS011;62578;53.556;9.914;2022-07-30T10:21:47;59.67;;;7.50;;
32355;SDS011;62578;53.556;9.914;2022-07-30T10:24:18;68.23;;;7.93;;
32355;SDS011;62578;53.556;9.914;2022-07-30T10:26:44;58.30;;;6.67;;
32355;SDS011;62578;53.556;9.914;2022-07-30T10:29:11;64.10;;;6.67;;
32355;SDS011;62578;53.556;9.914;2022-07-30T10:31:39;54.00;;;6.27;;
32355;SDS011;62578;53.556;9.914;2022-07-30T10:34:05;76.37;;;7.73;;
32355;SDS011;62578;53.556;9.914;2022-07-30T10:36:31;59.93;;;7.10;;
32355;SDS011;62578;53.556;9.914;2022-07-30T10:38:59;62.77;;;7.80;;
32355;SDS011;62578;53.556;9.914;2022-07-30T10:49:18;60.80;;;7.73;;
32355;SDS011;62578;53.556;9.914;2022-07-30T10:51:49;60.07;;;5.80;;
32355;SDS011;62578;53.556;9.914;2022-07-30T10:54:34;39.70;;;4.47;;
32355;SDS011;62578;53.556;9.914;2022-07-30T11:00:15;12.10;;;2.43;;
32355;SDS011;62578;53.556;9.914;2022-07-30T11:02:16;11.23;;;1.93;;
32355;SDS011;62578;53.556;9.914;2022-07-30T11:07:43;11.17;;;0.63;;
32355;SDS011;62578;53.556;9.914;2022-07-30T11:13:05;3.87;;;0.70;;
32355;SDS011;62578;53.556;9.914;2022-07-30T11:18:24;27.57;;;2.23;;
32355;SDS011;62578;53.556;9.914;2022-07-30T11:23:44;21.33;;;2.23;;
32355;SDS011;62578;53.556;9.914;2022-07-30T11:26:11;10.00;;;1.33;;
32355;SDS011;62578;53.556;9.914;2022-07-30T11:32:22;15.63;;;1.10;;
32355;SDS011;62578;53.556;9.914;2022-07-30T11:34:50;26.77;;;1.40;;
32355;SDS011;62578;53.556;9.914;2022-07-30T11:37:17;30.73;;;3.53;;
32355;SDS011;62578;53.556;9.914;2022-07-30T11:45:17;29.77;;;1.70;;
32355;SDS011;62578;53.556;9.914;2022-07-30T11:47:45;44.30;;;2.23;;
32355;SDS011;62578;53.556;9.914;2022-07-30T11:52:59;44.77;;;3.23;;
32355;SDS011;62578;53.556;9.914;2022-07-30T11:55:27;12.63;;;1.30;;
32355;SDS011;62578;53.556;9.914;2022-07-30T11:57:58;27.73;;;1.93;;
32355;SDS011;62578;53.556;9.914;2022-07-30T12:00:32;12.57;;;1.40;;
32355;SDS011;62578;53.556;9.914;2022-07-30T12:02:59;17.43;;;1.50;;
32355;SDS011;62578;53.556;9.914;2022-07-30T12:05:30;9.73;;;1.27;;
32355;SDS011;62578;53.556;9.914;2022-07-30T12:07:56;28.87;;;2.33;;
32355;SDS011;62578;53.556;9.914;2022-07-30T12:10:23;23.97;;;1.70;;
32355;SDS011;62578;53.556;9.914;2022-07-30T12:12:49;11.30;;;2.00;;
32355;SDS011;62578;53.556;9.914;2022-07-30T12:15:33;6.63;;;0.87;;
32355;SDS011;62578;53.556;9.914;2022-07-30T12:18:01;9.73;;;1.20;;
32355;SDS011;62578;53.556;9.914;2022-07-30T12:20:27;7.47;;;0.87;;
32355;SDS011;62578;53.556;9.914;2022-07-30T12:22:54;8.50;;;0.90;;
32355;SDS011;62578;53.556;9.914;2022-07-30T12:25:20;3.90;;;0.60;;
32355;SDS011;62578;53.556;9.914;2022-07-30T12:27:46;14.40;;;0.60;;
32355;SDS011;62578;53.556;9.914;2022-07-30T12:30:13;20.37;;;1.80;;
32355;SDS011;62578;53.556;9.914;2022-07-30T12:32:40;49.27;;;2.73;;
32355;SDS011;62578;53.556;9.914;2022-07-30T12:35:07;31.13;;;2.37;;
32355;SDS011;62578;53.556;9.914;2022-07-30T12:37:33;20.47;;;2.00;;
32355;SDS011;62578;53.556;9.914;2022-07-30T12:40:12;16.63;;;1.53;;
32355;SDS011;62578;53.556;9.914;2022-07-30T12:42:48;11.20;;;1.17;;
32355;SDS011;62578;53.556;9.914;2022-07-30T12:45:24;18.77;;;1.50;;
32355;SDS011;62578;53.556;9.914;2022-07-30T12:47:52;8.53;;;1.30;;
32355;SDS011;62578;53.556;9.914;2022-07-30T12:50:18;21.20;;;1.73;;
32355;SDS011;62578;53.556;9.914;2022-07-30T12:52:47;15.03;;;0.80;;
32355;SDS011;62578;53.556;9.914;2022-07-30T12:55:15;13.13;;;1.20;;
32355;SDS011;62578;53.556;9.914;2022-07-30T13:03:28;25.97;;;3.47;;
32355;SDS011;62578;53.556;9.914;2022-07-30T13:06:09;11.70;;;3.43;;
32355;SDS011;62578;53.556;9.914;2022-07-30T13:08:46;11.73;;;3.33;;
32355;SDS011;62578;53.556;9.914;2022-07-30T13:11:23;10.80;;;3.77;;
32355;SDS011;62578;53.556;9.914;2022-07-30T13:13:51;11.30;;;3.03;;
32355;SDS011;62578;53.556;9.914;2022-07-30T13:16:17;12.03;;;3.10;;
32355;SDS011;62578;53.556;9.914;2022-07-30T13:18:44;5.30;;;2.80;;
32355;SDS011;62578;53.556;9.914;2022-07-30T13:21:10;2.93;;;2.63;;
32355;SDS011;62578;53.556;9.914;2022-07-30T13:23:40;7.43;;;2.87;;
32355;SDS011;62578;53.556;9.914;2022-07-30T13:26:06;10.00;;;3.10;;
32355;SDS011;62578;53.556;9.914;2022-07-30T13:28:33;5.30;;;3.40;;
32355;SDS011;62578;53.556;9.914;2022-07-30T13:30:59;5.70;;;2.30;;
32355;SDS011;62578;53.556;9.914;2022-07-30T13:33:25;2.90;;;2.60;;
32355;SDS011;62578;53.556;9.914;2022-07-30T13:35:51;5.23;;;2.30;;
32355;SDS011;62578;53.556;9.914;2022-07-30T13:38:17;8.33;;;1.60;;
32355;SDS011;62578;53.556;9.914;2022-07-30T13:40:43;3.13;;;1.67;;
32355;SDS011;62578;53.556;9.914;2022-07-30T13:43:08;3.03;;;1.47;;
32355;SDS011;62578;53.556;9.914;2022-07-30T13:45:34;2.80;;;1.20;;
32355;SDS011;62578;53.556;9.914;2022-07-30T13:48:00;2.87;;;1.30;;
32355;SDS011;62578;53.556;9.914;2022-07-30T13:50:26;6.10;;;1.40;;
32355;SDS011;62578;53.556;9.914;2022-07-30T13:52:51;6.00;;;1.83;;
32355;SDS011;62578;53.556;9.914;2022-07-30T13:55:17;6.10;;;1.53;;
32355;SDS011;62578;53.556;9.914;2022-07-30T13:57:43;10.60;;;0.93;;
32355;SDS011;62578;53.556;9.914;2022-07-30T14:00:09;2.83;;;1.10;;
32355;SDS011;62578;53.556;9.914;2022-07-30T14:02:35;14.93;;;1.50;;
32355;SDS011;62578;53.556;9.914;2022-07-30T14:05:01;2.60;;;0.90;;
32355;SDS011;62578;53.556;9.914;2022-07-30T14:07:33;6.10;;;0.83;;
32355;SDS011;62578;53.556;9.914;2022-07-30T14:09:59;6.10;;;0.93;;
32355;SDS011;62578;53.556;9.914;2022-07-30T14:12:25;2.30;;;0.90;;
32355;SDS011;62578;53.556;9.914;2022-07-30T14:14:51;2.90;;;0.70;;
32355;SDS011;62578;53.556;9.914;2022-07-30T14:17:16;4.10;;;1.70;;
32355;SDS011;62578;53.556;9.914;2022-07-30T14:19:42;5.40;;;1.27;;
32355;SDS011;62578;53.556;9.914;2022-07-30T14:22:08;1.63;;;0.60;;
32355;SDS011;62578;53.556;9.914;2022-07-30T14:24:33;9.00;;;0.90;;
32355;SDS011;62578;53.556;9.914;2022-07-30T14:26:59;5.53;;;0.60;;
32355;SDS011;62578;53.556;9.914;2022-07-30T14:29:25;9.53;;;1.27;;
32355;SDS011;62578;53.556;9.914;2022-07-30T14:31:51;5.83;;;0.90;;
32355;SDS011;62578;53.556;9.914;2022-07-30T14:34:17;6.37;;;0.80;;
32355;SDS011;62578;53.556;9.914;2022-07-30T14:36:43;7.70;;;1.00;;
32355;SDS011;62578;53.556;9.914;2022-07-30T14:39:09;9.00;;;0.70;;
32355;SDS011;62578;53.556;9.914;2022-07-30T14:41:35;3.97;;;0.73;;
32355;SDS011;62578;53.556;9.914;2022-07-30T14:44:02;3.00;;;0.50;;
32355;SDS011;62578;53.556;9.914;2022-07-30T14:46:28;4.37;;;0.87;;
32355;SDS011;62578;53.556;9.914;2022-07-30T14:48:54;10.87;;;1.10;;
32355;SDS011;62578;53.556;9.914;2022-07-30T14:51:19;3.80;;;1.30;;
32355;SDS011;62578;53.556;9.914;2022-07-30T14:53:46;7.27;;;0.80;;
32355;SDS011;62578;53.556;9.914;2022-07-30T14:56:14;9.63;;;1.07;;
32355;SDS011;62578;53.556;9.914;2022-07-30T14:58:40;10.50;;;1.20;;
32355;SDS011;62578;53.556;9.914;2022-07-30T15:01:06;8.70;;;0.80;;
32355;SDS011;62578;53.556;9.914;2022-07-30T15:03:33;21.77;;;1.60;;
32355;SDS011;62578;53.556;9.914;2022-07-30T15:05:59;1.87;;;0.60;;
32355;SDS011;62578;53.556;9.914;2022-07-30T15:08:26;19.23;;;0.80;;
32355;SDS011;62578;53.556;9.914;2022-07-30T15:10:51;13.77;;;1.87;;
32355;SDS011;62578;53.556;9.914;2022-07-30T15:13:17;6.70;;;2.40;;
32355;SDS011;62578;53.556;9.914;2022-07-30T15:15:43;5.43;;;2.13;;
32355;SDS011;62578;53.556;9.914;2022-07-30T15:18:08;8.87;;;2.77;;
32355;SDS011;62578;53.556;9.914;2022-07-30T15:20:34;11.83;;;2.63;;
32355;SDS011;62578;53.556;9.914;2022-07-30T15:23:00;7.77;;;2.23;;
32355;SDS011;62578;53.556;9.914;2022-07-30T15:25:26;5.33;;;2.43;;
32355;SDS011;62578;53.556;9.914;2022-07-30T15:27:52;7.90;;;2.90;;
32355;SDS011;62578;53.556;9.914;2022-07-30T15:30:18;28.83;;;3.00;;
32355;SDS011;62578;53.556;9.914;2022-07-30T15:32:44;16.67;;;3.60;;
32355;SDS011;62578;53.556;9.914;2022-07-30T15:35:09;22.73;;;3.73;;
32355;SDS011;62578;53.556;9.914;2022-07-30T15:37:35;3.30;;;2.53;;
32355;SDS011;62578;53.556;9.914;2022-07-30T15:40:01;5.97;;;2.73;;
32355;SDS011;62578;53.556;9.914;2022-07-30T15:42:27;4.43;;;2.30;;
32355;SDS011;62578;53.556;9.914;2022-07-30T15:44:55;6.83;;;2.73;;